sensor_id;sensor_type;location;lat;lon;timestamp;temperature;humidity
4755;DHT22;2391;47.212;7.542;2022-11-23T00:00:26;9.50;97.30
4755;DHT22;2391;47.212;7.542;2022-11-23T00:02:53;9.50;97.30
4755;DHT22;2391;47.212;7.542;2022-11-23T00:05:19;9.60;97.30
4755;DHT22;2391;47.212;7.542;2022-11-23T00:07:44;9.50;97.30
4755;DHT22;2391;47.212;7.542;2022-11-23T00:10:10;9.50;97.40
4755;DHT22;2391;47.212;7.542;2022-11-23T00:12:36;9.50;97.40
4755;DHT22;2391;47.212;7.542;2022-11-23T00:15:03;9.50;97.40
4755;DHT22;2391;47.212;7.542;2022-11-23T00:17:29;9.50;97.40
4755;DHT22;2391;47.212;7.542;2022-11-23T00:19:55;9.50;97.30
4755;DHT22;2391;47.212;7.542;2022-11-23T00:22:21;9.50;97.30
4755;DHT22;2391;47.212;7.542;2022-11-23T00:24:46;9.40;97.20
4755;DHT22;2391;47.212;7.542;2022-11-23T00:27:12;9.40;97.20
4755;DHT22;2391;47.212;7.542;2022-11-23T00:29:38;9.30;97.30
4755;DHT22;2391;47.212;7.542;2022-11-23T00:32:04;9.30;97.40
4755;DHT22;2391;47.212;7.542;2022-11-23T00:34:29;9.30;97.50
4755;DHT22;2391;47.212;7.542;2022-11-23T00:36:55;9.30;97.50
4755;DHT22;2391;47.212;7.542;2022-11-23T00:39:21;9.40;97.50
4755;DHT22;2391;47.212;7.542;2022-11-23T00:41:47;9.30;97.50
4755;DHT22;2391;47.212;7.542;2022-11-23T00:44:13;9.30;97.50
4755;DHT22;2391;47.212;7.542;2022-11-23T00:46:39;9.30;97.60
4755;DHT22;2391;47.212;7.542;2022-11-23T00:49:05;9.40;97.60
4755;DHT22;2391;47.212;7.542;2022-11-23T00:51:33;9.30;97.60
4755;DHT22;2391;47.212;7.542;2022-11-23T00:54:00;9.30;97.60
4755;DHT22;2391;47.212;7.542;2022-11-23T00:56:27;9.30;97.60
4755;DHT22;2391;47.212;7.542;2022-11-23T00:58:55;9.40;97.60
4755;DHT22;2391;47.212;7.542;2022-11-23T01:01:24;9.40;97.60
4755;DHT22;2391;47.212;7.542;2022-11-23T01:03:53;9.40;97.40
4755;DHT22;2391;47.212;7.542;2022-11-23T01:06:24;9.40;97.40
4755;DHT22;2391;47.212;7.542;2022-11-23T01:08:53;9.30;97.30
4755;DHT22;2391;47.212;7.542;2022-11-23T01:11:21;9.30;97.20
4755;DHT22;2391;47.212;7.542;2022-11-23T01:13:48;9.30;97.20
4755;DHT22;2391;47.212;7.542;2022-11-23T01:16:17;9.20;97.10
4755;DHT22;2391;47.212;7.542;2022-11-23T01:18:43;9.20;97.10
4755;DHT22;2391;47.212;7.542;2022-11-23T01:21:09;9.20;97.20
4755;DHT22;2391;47.212;7.542;2022-11-23T01:23:35;9.20;97.30
4755;DHT22;2391;47.212;7.542;2022-11-23T01:26:06;9.20;97.20
4755;DHT22;2391;47.212;7.542;2022-11-23T01:28:32;9.20;97.20
4755;DHT22;2391;47.212;7.542;2022-11-23T01:31:13;9.20;97.00
4755;DHT22;2391;47.212;7.542;2022-11-23T01:33:39;9.10;97.00
4755;DHT22;2391;47.212;7.542;2022-11-23T01:36:15;9.00;96.90
4755;DHT22;2391;47.212;7.542;2022-11-23T01:38:38;9.00;97.00
4755;DHT22;2391;47.212;7.542;2022-11-23T01:41:06;8.90;97.00
4755;DHT22;2391;47.212;7.542;2022-11-23T01:43:32;8.90;97.00
4755;DHT22;2391;47.212;7.542;2022-11-23T01:46:00;8.90;96.90
4755;DHT22;2391;47.212;7.542;2022-11-23T01:48:41;8.80;96.90
4755;DHT22;2391;47.212;7.542;2022-11-23T01:51:12;8.80;96.80
4755;DHT22;2391;47.212;7.542;2022-11-23T01:53:37;8.80;96.70
4755;DHT22;2391;47.212;7.542;2022-11-23T01:56:05;8.70;96.60
4755;DHT22;2391;47.212;7.542;2022-11-23T01:58:34;8.70;96.60
4755;DHT22;2391;47.212;7.542;2022-11-23T02:01:01;8.60;96.50
4755;DHT22;2391;47.212;7.542;2022-11-23T02:03:28;8.60;96.60
4755;DHT22;2391;47.212;7.542;2022-11-23T02:05:59;8.60;96.70
4755;DHT22;2391;47.212;7.542;2022-11-23T02:08:26;8.60;96.60
4755;DHT22;2391;47.212;7.542;2022-11-23T02:10:55;8.50;96.40
4755;DHT22;2391;47.212;7.542;2022-11-23T02:13:22;8.50;96.30
4755;DHT22;2391;47.212;7.542;2022-11-23T02:15:49;8.40;96.30
4755;DHT22;2391;47.212;7.542;2022-11-23T02:18:18;8.40;96.30
4755;DHT22;2391;47.212;7.542;2022-11-23T02:20:45;8.30;96.30
4755;DHT22;2391;47.212;7.542;2022-11-23T02:25:53;8.30;96.30
4755;DHT22;2391;47.212;7.542;2022-11-23T02:28:22;8.20;96.20
4755;DHT22;2391;47.212;7.542;2022-11-23T02:30:50;8.10;96.30
4755;DHT22;2391;47.212;7.542;2022-11-23T02:33:17;8.10;96.30
4755;DHT22;2391;47.212;7.542;2022-11-23T02:35:53;8.10;96.30
4755;DHT22;2391;47.212;7.542;2022-11-23T02:38:20;8.10;96.30
4755;DHT22;2391;47.212;7.542;2022-11-23T02:40:46;8.10;96.00
4755;DHT22;2391;47.212;7.542;2022-11-23T02:43:13;8.00;96.00
4755;DHT22;2391;47.212;7.542;2022-11-23T02:45:49;7.90;96.10
4755;DHT22;2391;47.212;7.542;2022-11-23T02:48:15;7.80;96.30
4755;DHT22;2391;47.212;7.542;2022-11-23T02:50:41;7.80;96.30
4755;DHT22;2391;47.212;7.542;2022-11-23T02:53:07;7.80;96.30
4755;DHT22;2391;47.212;7.542;2022-11-23T02:55:33;7.80;96.20
4755;DHT22;2391;47.212;7.542;2022-11-23T02:57:59;7.80;96.20
4755;DHT22;2391;47.212;7.542;2022-11-23T03:00:25;7.80;96.20
4755;DHT22;2391;47.212;7.542;2022-11-23T03:02:50;7.80;96.30
4755;DHT22;2391;47.212;7.542;2022-11-23T03:05:16;7.80;96.30
4755;DHT22;2391;47.212;7.542;2022-11-23T03:07:42;7.80;96.30
4755;DHT22;2391;47.212;7.542;2022-11-23T03:10:08;7.70;96.30
4755;DHT22;2391;47.212;7.542;2022-11-23T03:12:34;7.70;96.40
4755;DHT22;2391;47.212;7.542;2022-11-23T03:15:00;7.70;96.40
4755;DHT22;2391;47.212;7.542;2022-11-23T03:17:25;7.70;96.60
4755;DHT22;2391;47.212;7.542;2022-11-23T03:19:52;7.70;96.20
4755;DHT22;2391;47.212;7.542;2022-11-23T03:22:18;7.70;96.20
4755;DHT22;2391;47.212;7.542;2022-11-23T03:24:44;7.70;96.20
4755;DHT22;2391;47.212;7.542;2022-11-23T03:27:10;7.70;96.10
4755;DHT22;2391;47.212;7.542;2022-11-23T03:29:36;7.70;96.20
4755;DHT22;2391;47.212;7.542;2022-11-23T03:32:02;7.70;96.20
4755;DHT22;2391;47.212;7.542;2022-11-23T03:34:28;7.70;96.20
4755;DHT22;2391;47.212;7.542;2022-11-23T03:36:53;7.70;96.20
4755;DHT22;2391;47.212;7.542;2022-11-23T03:39:19;7.70;96.20
4755;DHT22;2391;47.212;7.542;2022-11-23T03:41:45;7.70;96.30
4755;DHT22;2391;47.212;7.542;2022-11-23T03:44:11;7.70;96.30
4755;DHT22;2391;47.212;7.542;2022-11-23T03:46:37;7.70;96.30
4755;DHT22;2391;47.212;7.542;2022-11-23T03:49:03;7.70;96.30
4755;DHT22;2391;47.212;7.542;2022-11-23T03:51:29;7.70;96.30
4755;DHT22;2391;47.212;7.542;2022-11-23T03:53:55;7.70;96.40
4755;DHT22;2391;47.212;7.542;2022-11-23T03:56:20;7.70;96.40
4755;DHT22;2391;47.212;7.542;2022-11-23T03:58:46;7.70;96.50
4755;DHT22;2391;47.212;7.542;2022-11-23T04:01:12;7.70;96.60
4755;DHT22;2391;47.212;7.542;2022-11-23T04:03:37;7.70;96.60
4755;DHT22;2391;47.212;7.542;2022-11-23T04:06:03;7.70;96.70
4755;DHT22;2391;47.212;7.542;2022-11-23T04:08:29;7.70;96.70
4755;DHT22;2391;47.212;7.542;2022-11-23T04:10:56;7.70;96.80
4755;DHT22;2391;47.212;7.542;2022-11-23T04:13:22;7.80;96.80
4755;DHT22;2391;47.212;7.542;2022-11-23T04:15:48;7.80;96.90
4755;DHT22;2391;47.212;7.542;2022-11-23T04:18:14;7.80;96.80
4755;DHT22;2391;47.212;7.542;2022-11-23T04:20:40;7.80;96.90
4755;DHT22;2391;47.212;7.542;2022-11-23T04:23:06;7.80;96.90
4755;DHT22;2391;47.212;7.542;2022-11-23T04:25:31;7.80;96.80
4755;DHT22;2391;47.212;7.542;2022-11-23T04:27:57;7.80;96.90
4755;DHT22;2391;47.212;7.542;2022-11-23T04:30:23;7.80;96.80
4755;DHT22;2391;47.212;7.542;2022-11-23T04:32:49;7.80;96.80
4755;DHT22;2391;47.212;7.542;2022-11-23T04:35:15;7.80;96.90
4755;DHT22;2391;47.212;7.542;2022-11-23T04:37:41;7.80;96.80
4755;DHT22;2391;47.212;7.542;2022-11-23T04:40:07;7.80;96.90
4755;DHT22;2391;47.212;7.542;2022-11-23T04:42:33;7.90;96.90
4755;DHT22;2391;47.212;7.542;2022-11-23T04:44:59;7.90;96.90
4755;DHT22;2391;47.212;7.542;2022-11-23T04:47:25;7.90;96.80
4755;DHT22;2391;47.212;7.542;2022-11-23T04:49:50;7.80;96.80
4755;DHT22;2391;47.212;7.542;2022-11-23T04:52:16;7.80;96.90
4755;DHT22;2391;47.212;7.542;2022-11-23T04:54:42;7.80;96.90
4755;DHT22;2391;47.212;7.542;2022-11-23T04:57:08;7.80;97.00
4755;DHT22;2391;47.212;7.542;2022-11-23T04:59:34;7.80;96.90
4755;DHT22;2391;47.212;7.542;2022-11-23T05:02:00;7.80;97.00
4755;DHT22;2391;47.212;7.542;2022-11-23T05:04:26;7.80;97.00
4755;DHT22;2391;47.212;7.542;2022-11-23T05:06:52;7.70;97.00
4755;DHT22;2391;47.212;7.542;2022-11-23T05:09:17;7.70;97.00
4755;DHT22;2391;47.212;7.542;2022-11-23T05:11:43;7.70;97.00
4755;DHT22;2391;47.212;7.542;2022-11-23T05:14:09;7.70;97.20
4755;DHT22;2391;47.212;7.542;2022-11-23T05:16:35;7.70;97.20
4755;DHT22;2391;47.212;7.542;2022-11-23T05:19:01;7.70;97.30
4755;DHT22;2391;47.212;7.542;2022-11-23T05:21:26;7.70;97.30
4755;DHT22;2391;47.212;7.542;2022-11-23T05:23:52;7.70;97.40
4755;DHT22;2391;47.212;7.542;2022-11-23T05:26:18;7.80;97.30
4755;DHT22;2391;47.212;7.542;2022-11-23T05:28:46;7.80;97.30
4755;DHT22;2391;47.212;7.542;2022-11-23T05:31:12;7.70;97.30
4755;DHT22;2391;47.212;7.542;2022-11-23T05:33:38;7.80;97.30
4755;DHT22;2391;47.212;7.542;2022-11-23T05:36:04;7.80;97.30
4755;DHT22;2391;47.212;7.542;2022-11-23T05:38:30;7.70;97.30
4755;DHT22;2391;47.212;7.542;2022-11-23T05:40:59;7.80;97.30
4755;DHT22;2391;47.212;7.542;2022-11-23T05:43:24;7.80;97.30
4755;DHT22;2391;47.212;7.542;2022-11-23T05:45:50;7.80;97.30
4755;DHT22;2391;47.212;7.542;2022-11-23T05:48:16;7.80;97.20
4755;DHT22;2391;47.212;7.542;2022-11-23T05:50:42;7.80;97.20
4755;DHT22;2391;47.212;7.542;2022-11-23T05:53:08;7.70;97.10
4755;DHT22;2391;47.212;7.542;2022-11-23T05:55:34;7.70;97.20
4755;DHT22;2391;47.212;7.542;2022-11-23T05:58:00;7.70;97.30
4755;DHT22;2391;47.212;7.542;2022-11-23T06:00:26;7.80;97.30
4755;DHT22;2391;47.212;7.542;2022-11-23T06:02:51;7.80;97.20
4755;DHT22;2391;47.212;7.542;2022-11-23T06:05:17;7.80;97.20
4755;DHT22;2391;47.212;7.542;2022-11-23T06:07:43;7.90;97.40
4755;DHT22;2391;47.212;7.542;2022-11-23T06:10:10;7.90;97.40
4755;DHT22;2391;47.212;7.542;2022-11-23T06:12:36;7.90;97.20
4755;DHT22;2391;47.212;7.542;2022-11-23T06:15:02;7.90;97.20
4755;DHT22;2391;47.212;7.542;2022-11-23T06:17:28;7.90;97.20
4755;DHT22;2391;47.212;7.542;2022-11-23T06:19:54;7.90;97.10
4755;DHT22;2391;47.212;7.542;2022-11-23T06:22:19;7.90;96.90
4755;DHT22;2391;47.212;7.542;2022-11-23T06:24:45;7.90;96.90
4755;DHT22;2391;47.212;7.542;2022-11-23T06:27:11;7.80;96.90
4755;DHT22;2391;47.212;7.542;2022-11-23T06:29:38;7.70;96.90
4755;DHT22;2391;47.212;7.542;2022-11-23T06:32:04;7.80;97.00
4755;DHT22;2391;47.212;7.542;2022-11-23T06:34:30;7.80;96.90
4755;DHT22;2391;47.212;7.542;2022-11-23T06:36:55;7.90;96.90
4755;DHT22;2391;47.212;7.542;2022-11-23T06:39:21;7.80;96.70
4755;DHT22;2391;47.212;7.542;2022-11-23T06:41:47;7.80;96.80
4755;DHT22;2391;47.212;7.542;2022-11-23T06:44:13;7.80;96.80
4755;DHT22;2391;47.212;7.542;2022-11-23T06:46:38;7.80;96.70
4755;DHT22;2391;47.212;7.542;2022-11-23T06:49:04;7.80;96.60
4755;DHT22;2391;47.212;7.542;2022-11-23T06:51:30;7.80;96.90
4755;DHT22;2391;47.212;7.542;2022-11-23T06:53:56;7.70;96.80
4755;DHT22;2391;47.212;7.542;2022-11-23T06:56:22;7.70;96.70
4755;DHT22;2391;47.212;7.542;2022-11-23T06:58:48;7.70;96.80
4755;DHT22;2391;47.212;7.542;2022-11-23T07:01:13;7.70;96.90
4755;DHT22;2391;47.212;7.542;2022-11-23T07:03:39;7.80;96.90
4755;DHT22;2391;47.212;7.542;2022-11-23T07:06:06;7.80;96.80
4755;DHT22;2391;47.212;7.542;2022-11-23T07:08:32;7.80;96.80
4755;DHT22;2391;47.212;7.542;2022-11-23T07:11:00;7.80;96.50
4755;DHT22;2391;47.212;7.542;2022-11-23T07:13:25;7.70;96.60
4755;DHT22;2391;47.212;7.542;2022-11-23T07:15:51;7.70;96.60
4755;DHT22;2391;47.212;7.542;2022-11-23T07:18:17;7.80;96.60
4755;DHT22;2391;47.212;7.542;2022-11-23T07:20:43;7.80;96.60
4755;DHT22;2391;47.212;7.542;2022-11-23T07:23:10;7.90;96.70
4755;DHT22;2391;47.212;7.542;2022-11-23T07:25:37;7.90;96.70
4755;DHT22;2391;47.212;7.542;2022-11-23T07:28:05;7.90;96.70
4755;DHT22;2391;47.212;7.542;2022-11-23T07:30:32;7.90;96.70
4755;DHT22;2391;47.212;7.542;2022-11-23T07:33:07;8.00;96.70
4755;DHT22;2391;47.212;7.542;2022-11-23T07:35:33;8.00;96.60
4755;DHT22;2391;47.212;7.542;2022-11-23T07:38:00;8.00;96.60
4755;DHT22;2391;47.212;7.542;2022-11-23T07:40:27;8.10;96.50
4755;DHT22;2391;47.212;7.542;2022-11-23T07:43:00;8.10;96.60
4755;DHT22;2391;47.212;7.542;2022-11-23T07:45:27;8.20;96.50
4755;DHT22;2391;47.212;7.542;2022-11-23T07:47:59;8.20;96.30
4755;DHT22;2391;47.212;7.542;2022-11-23T07:50:25;8.20;96.30
4755;DHT22;2391;47.212;7.542;2022-11-23T07:52:51;8.20;96.20
4755;DHT22;2391;47.212;7.542;2022-11-23T07:55:17;8.20;95.80
4755;DHT22;2391;47.212;7.542;2022-11-23T07:57:46;8.10;96.10
4755;DHT22;2391;47.212;7.542;2022-11-23T08:00:12;8.00;96.40
4755;DHT22;2391;47.212;7.542;2022-11-23T08:02:38;7.90;96.30
4755;DHT22;2391;47.212;7.542;2022-11-23T08:05:05;7.90;96.40
4755;DHT22;2391;47.212;7.542;2022-11-23T08:07:31;7.90;96.50
4755;DHT22;2391;47.212;7.542;2022-11-23T08:09:57;7.90;96.60
4755;DHT22;2391;47.212;7.542;2022-11-23T08:12:22;8.00;96.60
4755;DHT22;2391;47.212;7.542;2022-11-23T08:14:48;8.00;96.30
4755;DHT22;2391;47.212;7.542;2022-11-23T08:17:14;8.00;96.20
4755;DHT22;2391;47.212;7.542;2022-11-23T08:19:40;8.00;96.20
4755;DHT22;2391;47.212;7.542;2022-11-23T08:22:05;8.00;96.50
4755;DHT22;2391;47.212;7.542;2022-11-23T08:24:31;8.20;96.40
4755;DHT22;2391;47.212;7.542;2022-11-23T08:26:57;8.20;96.20
4755;DHT22;2391;47.212;7.542;2022-11-23T08:29:23;8.30;96.20
4755;DHT22;2391;47.212;7.542;2022-11-23T08:31:49;8.30;96.10
4755;DHT22;2391;47.212;7.542;2022-11-23T08:34:15;8.30;96.10
4755;DHT22;2391;47.212;7.542;2022-11-23T08:36:43;8.40;96.20
4755;DHT22;2391;47.212;7.542;2022-11-23T08:39:09;8.40;96.20
4755;DHT22;2391;47.212;7.542;2022-11-23T08:41:36;8.50;96.30
4755;DHT22;2391;47.212;7.542;2022-11-23T08:44:03;8.40;96.00
4755;DHT22;2391;47.212;7.542;2022-11-23T08:46:29;8.40;96.20
4755;DHT22;2391;47.212;7.542;2022-11-23T08:48:55;8.40;96.20
4755;DHT22;2391;47.212;7.542;2022-11-23T08:51:21;8.50;96.40
4755;DHT22;2391;47.212;7.542;2022-11-23T08:53:49;8.40;96.30
4755;DHT22;2391;47.212;7.542;2022-11-23T08:56:15;8.50;96.60
4755;DHT22;2391;47.212;7.542;2022-11-23T08:58:42;8.50;96.50
4755;DHT22;2391;47.212;7.542;2022-11-23T09:01:09;8.40;96.50
4755;DHT22;2391;47.212;7.542;2022-11-23T09:03:36;8.40;96.60
4755;DHT22;2391;47.212;7.542;2022-11-23T09:06:02;8.40;96.70
4755;DHT22;2391;47.212;7.542;2022-11-23T09:08:28;8.30;96.90
4755;DHT22;2391;47.212;7.542;2022-11-23T09:10:53;8.40;97.00
4755;DHT22;2391;47.212;7.542;2022-11-23T09:13:19;8.40;96.90
4755;DHT22;2391;47.212;7.542;2022-11-23T09:15:45;8.40;97.00
4755;DHT22;2391;47.212;7.542;2022-11-23T09:18:11;8.50;97.00
4755;DHT22;2391;47.212;7.542;2022-11-23T09:20:38;8.50;96.60
4755;DHT22;2391;47.212;7.542;2022-11-23T09:23:04;8.50;96.60
4755;DHT22;2391;47.212;7.542;2022-11-23T09:25:30;8.40;96.30
4755;DHT22;2391;47.212;7.542;2022-11-23T09:27:57;8.40;96.50
4755;DHT22;2391;47.212;7.542;2022-11-23T09:30:25;8.40;96.60
4755;DHT22;2391;47.212;7.542;2022-11-23T09:32:51;8.40;96.50
4755;DHT22;2391;47.212;7.542;2022-11-23T09:35:16;8.30;96.50
4755;DHT22;2391;47.212;7.542;2022-11-23T09:37:42;8.30;96.50
4755;DHT22;2391;47.212;7.542;2022-11-23T09:40:13;8.30;96.60
4755;DHT22;2391;47.212;7.542;2022-11-23T09:45:44;8.30;96.80
4755;DHT22;2391;47.212;7.542;2022-11-23T09:51:10;8.40;96.50
4755;DHT22;2391;47.212;7.542;2022-11-23T09:53:39;8.40;96.60
4755;DHT22;2391;47.212;7.542;2022-11-23T09:56:12;8.40;96.60
4755;DHT22;2391;47.212;7.542;2022-11-23T09:58:37;8.40;96.60
4755;DHT22;2391;47.212;7.542;2022-11-23T10:01:06;8.30;96.60
4755;DHT22;2391;47.212;7.542;2022-11-23T10:03:36;8.40;96.60
4755;DHT22;2391;47.212;7.542;2022-11-23T10:06:26;8.40;96.50
4755;DHT22;2391;47.212;7.542;2022-11-23T10:26:12;8.20;96.80
4755;DHT22;2391;47.212;7.542;2022-11-23T10:28:38;8.20;96.80
4755;DHT22;2391;47.212;7.542;2022-11-23T10:31:11;8.20;96.80
4755;DHT22;2391;47.212;7.542;2022-11-23T10:33:41;8.20;96.90
4755;DHT22;2391;47.212;7.542;2022-11-23T10:36:08;8.10;96.80
4755;DHT22;2391;47.212;7.542;2022-11-23T10:38:35;8.10;96.70
4755;DHT22;2391;47.212;7.542;2022-11-23T10:43:38;8.10;96.90
4755;DHT22;2391;47.212;7.542;2022-11-23T10:49:21;8.10;97.20
4755;DHT22;2391;47.212;7.542;2022-11-23T10:51:59;8.10;96.90
4755;DHT22;2391;47.212;7.542;2022-11-23T10:54:49;8.00;96.90
4755;DHT22;2391;47.212;7.542;2022-11-23T10:57:30;8.00;96.90
4755;DHT22;2391;47.212;7.542;2022-11-23T11:00:04;8.00;96.90
4755;DHT22;2391;47.212;7.542;2022-11-23T11:02:26;8.00;97.10
4755;DHT22;2391;47.212;7.542;2022-11-23T11:05:37;8.00;97.30
4755;DHT22;2391;47.212;7.542;2022-11-23T11:07:27;8.10;97.20
4755;DHT22;2391;47.212;7.542;2022-11-23T11:12:24;8.10;97.00
4755;DHT22;2391;47.212;7.542;2022-11-23T11:17:33;8.20;96.50
4755;DHT22;2391;47.212;7.542;2022-11-23T11:20:11;8.30;96.50
4755;DHT22;2391;47.212;7.542;2022-11-23T11:22:33;8.30;95.90
4755;DHT22;2391;47.212;7.542;2022-11-23T11:25:03;8.30;95.30
4755;DHT22;2391;47.212;7.542;2022-11-23T11:27:30;8.30;95.40
4755;DHT22;2391;47.212;7.542;2022-11-23T11:30:05;8.30;95.50
4755;DHT22;2391;47.212;7.542;2022-11-23T11:32:53;8.30;95.60
4755;DHT22;2391;47.212;7.542;2022-11-23T11:35:22;8.40;95.60
4755;DHT22;2391;47.212;7.542;2022-11-23T11:37:48;8.40;95.50
4755;DHT22;2391;47.212;7.542;2022-11-23T11:40:27;8.50;95.40
4755;DHT22;2391;47.212;7.542;2022-11-23T11:45:43;8.60;94.90
4755;DHT22;2391;47.212;7.542;2022-11-23T11:48:19;8.60;94.40
4755;DHT22;2391;47.212;7.542;2022-11-23T11:50:46;8.60;94.40
4755;DHT22;2391;47.212;7.542;2022-11-23T11:53:14;8.60;94.20
4755;DHT22;2391;47.212;7.542;2022-11-23T11:55:50;8.60;93.90
4755;DHT22;2391;47.212;7.542;2022-11-23T11:58:17;8.60;94.50
4755;DHT22;2391;47.212;7.542;2022-11-23T12:00:46;8.70;94.50
4755;DHT22;2391;47.212;7.542;2022-11-23T12:03:23;8.70;94.50
4755;DHT22;2391;47.212;7.542;2022-11-23T12:05:52;8.70;93.70
4755;DHT22;2391;47.212;7.542;2022-11-23T12:08:45;8.70;93.40
4755;DHT22;2391;47.212;7.542;2022-11-23T12:11:10;8.80;93.40
4755;DHT22;2391;47.212;7.542;2022-11-23T12:13:40;8.80;93.50
4755;DHT22;2391;47.212;7.542;2022-11-23T12:32:41;9.00;92.90
4755;DHT22;2391;47.212;7.542;2022-11-23T12:43:16;8.90;93.80
4755;DHT22;2391;47.212;7.542;2022-11-23T12:46:12;9.00;93.60
4755;DHT22;2391;47.212;7.542;2022-11-23T12:48:58;9.00;93.40
4755;DHT22;2391;47.212;7.542;2022-11-23T12:51:33;8.90;93.10
4755;DHT22;2391;47.212;7.542;2022-11-23T12:57:50;8.90;93.40
4755;DHT22;2391;47.212;7.542;2022-11-23T12:59:50;8.90;93.10
4755;DHT22;2391;47.212;7.542;2022-11-23T13:02:29;8.90;93.30
4755;DHT22;2391;47.212;7.542;2022-11-23T13:05:11;8.90;93.10
4755;DHT22;2391;47.212;7.542;2022-11-23T13:16:27;8.80;93.40
4755;DHT22;2391;47.212;7.542;2022-11-23T13:24:03;8.80;94.00
4755;DHT22;2391;47.212;7.542;2022-11-23T13:26:29;8.80;93.90
4755;DHT22;2391;47.212;7.542;2022-11-23T13:28:58;8.80;94.10
4755;DHT22;2391;47.212;7.542;2022-11-23T13:31:28;8.90;94.10
4755;DHT22;2391;47.212;7.542;2022-11-23T13:33:58;9.00;94.00
4755;DHT22;2391;47.212;7.542;2022-11-23T13:36:39;9.00;93.80
4755;DHT22;2391;47.212;7.542;2022-11-23T13:39:04;9.00;93.80
4755;DHT22;2391;47.212;7.542;2022-11-23T13:44:24;9.00;93.90
4755;DHT22;2391;47.212;7.542;2022-11-23T13:52:24;9.10;93.80
4755;DHT22;2391;47.212;7.542;2022-11-23T13:57:32;9.20;93.90
4755;DHT22;2391;47.212;7.542;2022-11-23T14:12:05;9.20;93.90
4755;DHT22;2391;47.212;7.542;2022-11-23T14:14:25;9.20;94.20
4755;DHT22;2391;47.212;7.542;2022-11-23T14:17:01;9.20;94.20
4755;DHT22;2391;47.212;7.542;2022-11-23T14:19:33;9.20;94.30
4755;DHT22;2391;47.212;7.542;2022-11-23T14:25:10;9.20;94.50
4755;DHT22;2391;47.212;7.542;2022-11-23T14:34:09;9.30;94.30
4755;DHT22;2391;47.212;7.542;2022-11-23T14:38:43;9.10;94.30
4755;DHT22;2391;47.212;7.542;2022-11-23T14:41:09;9.00;94.60
4755;DHT22;2391;47.212;7.542;2022-11-23T14:43:39;9.00;94.80
4755;DHT22;2391;47.212;7.542;2022-11-23T14:46:12;9.00;95.00
4755;DHT22;2391;47.212;7.542;2022-11-23T14:48:36;9.00;95.30
4755;DHT22;2391;47.212;7.542;2022-11-23T14:51:13;9.00;95.70
4755;DHT22;2391;47.212;7.542;2022-11-23T14:53:41;9.00;96.20
4755;DHT22;2391;47.212;7.542;2022-11-23T14:56:30;9.00;96.50
4755;DHT22;2391;47.212;7.542;2022-11-23T14:59:01;9.00;96.80
4755;DHT22;2391;47.212;7.542;2022-11-23T15:01:25;9.00;96.80
4755;DHT22;2391;47.212;7.542;2022-11-23T15:03:55;9.00;97.10
4755;DHT22;2391;47.212;7.542;2022-11-23T15:06:28;8.90;97.00
4755;DHT22;2391;47.212;7.542;2022-11-23T15:08:59;8.90;97.20
4755;DHT22;2391;47.212;7.542;2022-11-23T15:11:23;8.90;97.50
4755;DHT22;2391;47.212;7.542;2022-11-23T15:13:51;9.00;97.60
4755;DHT22;2391;47.212;7.542;2022-11-23T15:16:19;9.00;97.60
4755;DHT22;2391;47.212;7.542;2022-11-23T15:18:45;9.00;97.60
4755;DHT22;2391;47.212;7.542;2022-11-23T15:23:47;8.90;97.70
4755;DHT22;2391;47.212;7.542;2022-11-23T15:28:46;8.90;97.90
4755;DHT22;2391;47.212;7.542;2022-11-23T15:33:49;9.00;98.20
4755;DHT22;2391;47.212;7.542;2022-11-23T15:36:20;8.90;98.30
4755;DHT22;2391;47.212;7.542;2022-11-23T15:38:45;8.90;98.50
4755;DHT22;2391;47.212;7.542;2022-11-23T15:41:11;8.90;98.60
4755;DHT22;2391;47.212;7.542;2022-11-23T15:43:50;8.90;98.70
4755;DHT22;2391;47.212;7.542;2022-11-23T15:46:08;8.90;98.90
4755;DHT22;2391;47.212;7.542;2022-11-23T15:48:36;8.80;98.80
4755;DHT22;2391;47.212;7.542;2022-11-23T15:51:05;8.90;99.00
4755;DHT22;2391;47.212;7.542;2022-11-23T15:56:04;8.80;98.60
4755;DHT22;2391;47.212;7.542;2022-11-23T15:58:31;8.70;98.90
4755;DHT22;2391;47.212;7.542;2022-11-23T16:01:12;8.50;99.20
4755;DHT22;2391;47.212;7.542;2022-11-23T16:03:48;8.40;99.50
4755;DHT22;2391;47.212;7.542;2022-11-23T16:06:22;8.30;99.90
4755;DHT22;2391;47.212;7.542;2022-11-23T16:08:49;8.20;99.90
4755;DHT22;2391;47.212;7.542;2022-11-23T16:11:33;8.20;99.90
4755;DHT22;2391;47.212;7.542;2022-11-23T16:16:42;8.00;99.90
4755;DHT22;2391;47.212;7.542;2022-11-23T16:19:24;8.00;99.90
4755;DHT22;2391;47.212;7.542;2022-11-23T16:21:53;7.90;99.90
4755;DHT22;2391;47.212;7.542;2022-11-23T16:24:22;7.90;99.90
4755;DHT22;2391;47.212;7.542;2022-11-23T16:26:49;7.80;99.90
4755;DHT22;2391;47.212;7.542;2022-11-23T16:29:20;7.80;99.90
4755;DHT22;2391;47.212;7.542;2022-11-23T16:31:56;7.70;99.90
4755;DHT22;2391;47.212;7.542;2022-11-23T16:34:22;7.70;99.90
4755;DHT22;2391;47.212;7.542;2022-11-23T16:36:49;7.70;99.90
4755;DHT22;2391;47.212;7.542;2022-11-23T16:39:15;7.80;99.90
4755;DHT22;2391;47.212;7.542;2022-11-23T16:41:41;7.90;99.90
4755;DHT22;2391;47.212;7.542;2022-11-23T16:44:07;8.00;99.90
4755;DHT22;2391;47.212;7.542;2022-11-23T16:46:33;8.10;99.90
4755;DHT22;2391;47.212;7.542;2022-11-23T16:48:59;8.10;99.90
4755;DHT22;2391;47.212;7.542;2022-11-23T16:51:25;8.20;99.90
4755;DHT22;2391;47.212;7.542;2022-11-23T16:53:51;8.20;99.90
4755;DHT22;2391;47.212;7.542;2022-11-23T16:56:21;8.20;99.90
4755;DHT22;2391;47.212;7.542;2022-11-23T16:58:48;8.20;99.90
4755;DHT22;2391;47.212;7.542;2022-11-23T17:01:25;8.20;99.90
4755;DHT22;2391;47.212;7.542;2022-11-23T17:03:52;8.30;99.90
4755;DHT22;2391;47.212;7.542;2022-11-23T17:06:18;8.30;99.90
4755;DHT22;2391;47.212;7.542;2022-11-23T17:08:46;8.40;99.90
4755;DHT22;2391;47.212;7.542;2022-11-23T17:11:21;8.30;99.90
4755;DHT22;2391;47.212;7.542;2022-11-23T17:13:48;8.20;99.90
4755;DHT22;2391;47.212;7.542;2022-11-23T17:16:18;8.20;99.90
4755;DHT22;2391;47.212;7.542;2022-11-23T17:18:44;8.20;99.90
4755;DHT22;2391;47.212;7.542;2022-11-23T17:21:11;8.10;99.90
4755;DHT22;2391;47.212;7.542;2022-11-23T17:23:37;8.00;99.90
4755;DHT22;2391;47.212;7.542;2022-11-23T17:26:35;8.10;99.90
4755;DHT22;2391;47.212;7.542;2022-11-23T17:29:00;8.10;99.90
4755;DHT22;2391;47.212;7.542;2022-11-23T17:31:28;8.20;99.90
4755;DHT22;2391;47.212;7.542;2022-11-23T17:33:54;8.20;99.90
4755;DHT22;2391;47.212;7.542;2022-11-23T17:36:20;8.20;99.90
4755;DHT22;2391;47.212;7.542;2022-11-23T17:38:46;8.30;99.90
4755;DHT22;2391;47.212;7.542;2022-11-23T17:41:14;8.30;99.90
4755;DHT22;2391;47.212;7.542;2022-11-23T17:43:40;8.20;99.90
4755;DHT22;2391;47.212;7.542;2022-11-23T17:46:14;8.20;99.90
4755;DHT22;2391;47.212;7.542;2022-11-23T17:48:38;8.20;99.90
4755;DHT22;2391;47.212;7.542;2022-11-23T17:51:05;8.20;99.90
4755;DHT22;2391;47.212;7.542;2022-11-23T17:53:30;8.30;99.90
4755;DHT22;2391;47.212;7.542;2022-11-23T17:55:56;8.40;99.90
4755;DHT22;2391;47.212;7.542;2022-11-23T17:58:22;8.50;99.90
4755;DHT22;2391;47.212;7.542;2022-11-23T18:00:48;8.50;99.90
4755;DHT22;2391;47.212;7.542;2022-11-23T18:03:13;8.50;99.90
4755;DHT22;2391;47.212;7.542;2022-11-23T18:05:39;8.50;99.90
4755;DHT22;2391;47.212;7.542;2022-11-23T18:08:05;8.50;99.90
4755;DHT22;2391;47.212;7.542;2022-11-23T18:10:30;8.40;99.90
4755;DHT22;2391;47.212;7.542;2022-11-23T18:12:56;8.30;99.90
4755;DHT22;2391;47.212;7.542;2022-11-23T18:15:22;8.30;99.90
4755;DHT22;2391;47.212;7.542;2022-11-23T18:17:48;8.20;99.90
4755;DHT22;2391;47.212;7.542;2022-11-23T18:20:14;8.20;99.90
4755;DHT22;2391;47.212;7.542;2022-11-23T18:22:40;8.20;99.90
4755;DHT22;2391;47.212;7.542;2022-11-23T18:25:06;8.20;99.90
4755;DHT22;2391;47.212;7.542;2022-11-23T18:27:32;8.20;99.90
4755;DHT22;2391;47.212;7.542;2022-11-23T18:29:58;8.10;99.90